sensor_id;sensor_type;location;lat;lon;timestamp;pressure;altitude;pressure_sealevel;temperature;humidity
11523;BME280;40093;43.224;27.910;2023-01-24T00:00:41;102093.94;;;2.28;100.00
11523;BME280;40093;43.224;27.910;2023-01-24T00:03:08;102080.00;;;2.39;100.00
11523;BME280;40093;43.224;27.910;2023-01-24T00:05:39;102070.31;;;2.62;100.00
11523;BME280;40093;43.224;27.910;2023-01-24T00:08:06;102078.75;;;2.60;100.00
11523;BME280;40093;43.224;27.910;2023-01-24T00:10:33;102088.34;;;2.53;100.00
11523;BME280;40093;43.224;27.910;2023-01-24T00:12:59;102083.44;;;2.50;100.00
11523;BME280;40093;43.224;27.910;2023-01-24T00:15:26;102084.22;;;2.22;100.00
11523;BME280;40093;43.224;27.910;2023-01-24T00:17:53;102099.94;;;2.30;100.00
11523;BME280;40093;43.224;27.910;2023-01-24T00:20:20;102075.41;;;2.40;100.00
11523;BME280;40093;43.224;27.910;2023-01-24T00:22:48;102110.63;;;2.50;100.00
11523;BME280;40093;43.224;27.910;2023-01-24T00:25:15;102072.47;;;2.65;100.00
11523;BME280;40093;43.224;27.910;2023-01-24T00:27:42;102083.94;;;2.57;100.00
11523;BME280;40093;43.224;27.910;2023-01-24T00:30:10;102098.28;;;2.67;100.00
11523;BME280;40093;43.224;27.910;2023-01-24T00:32:37;102089.91;;;2.59;100.00
11523;BME280;40093;43.224;27.910;2023-01-24T00:35:05;102100.19;;;2.29;100.00
11523;BME280;40093;43.224;27.910;2023-01-24T00:37:32;102077.69;;;2.23;100.00
11523;BME280;40093;43.224;27.910;2023-01-24T00:40:00;102068.09;;;2.36;100.00
11523;BME280;40093;43.224;27.910;2023-01-24T00:42:27;102104.78;;;2.33;100.00
11523;BME280;40093;43.224;27.910;2023-01-24T00:44:54;102071.59;;;2.41;100.00
11523;BME280;40093;43.224;27.910;2023-01-24T00:47:21;102106.00;;;2.12;100.00
11523;BME280;40093;43.224;27.910;2023-01-24T00:49:48;102101.88;;;2.25;100.00
11523;BME280;40093;43.224;27.910;2023-01-24T00:52:15;102086.88;;;2.27;100.00
11523;BME280;40093;43.224;27.910;2023-01-24T00:54:41;102095.66;;;2.14;100.00
11523;BME280;40093;43.224;27.910;2023-01-24T00:57:10;102082.69;;;2.06;100.00
11523;BME280;40093;43.224;27.910;2023-01-24T00:59:37;102084.09;;;1.99;100.00
11523;BME280;40093;43.224;27.910;2023-01-24T01:02:04;102084.09;;;1.99;100.00
11523;BME280;40093;43.224;27.910;2023-01-24T01:04:32;102090.03;;;2.06;100.00
11523;BME280;40093;43.224;27.910;2023-01-24T01:06:59;102079.69;;;2.08;100.00
11523;BME280;40093;43.224;27.910;2023-01-24T01:09:25;102080.81;;;2.02;100.00
11523;BME280;40093;43.224;27.910;2023-01-24T01:11:52;102085.44;;;2.01;100.00
11523;BME280;40093;43.224;27.910;2023-01-24T01:14:21;102069.03;;;2.21;100.00
11523;BME280;40093;43.224;27.910;2023-01-24T01:16:48;102074.38;;;2.31;100.00
11523;BME280;40093;43.224;27.910;2023-01-24T01:19:14;102063.59;;;2.16;100.00
11523;BME280;40093;43.224;27.910;2023-01-24T01:21:41;102074.41;;;2.26;100.00
11523;BME280;40093;43.224;27.910;2023-01-24T01:24:10;102061.25;;;2.38;100.00
11523;BME280;40093;43.224;27.910;2023-01-24T01:26:36;102078.13;;;2.40;100.00
11523;BME280;40093;43.224;27.910;2023-01-24T01:29:03;102073.88;;;2.24;100.00
11523;BME280;40093;43.224;27.910;2023-01-24T01:31:31;102073.75;;;2.39;100.00
11523;BME280;40093;43.224;27.910;2023-01-24T01:33:58;102069.66;;;2.41;100.00
11523;BME280;40093;43.224;27.910;2023-01-24T01:36:25;102076.09;;;2.55;100.00
11523;BME280;40093;43.224;27.910;2023-01-24T01:38:52;102073.72;;;2.44;100.00
11523;BME280;40093;43.224;27.910;2023-01-24T01:41:19;102090.47;;;2.56;100.00
11523;BME280;40093;43.224;27.910;2023-01-24T01:43:46;102064.66;;;2.58;100.00
11523;BME280;40093;43.224;27.910;2023-01-24T01:46:37;102068.84;;;2.74;100.00
11523;BME280;40093;43.224;27.910;2023-01-24T01:49:13;102077.28;;;2.73;100.00
11523;BME280;40093;43.224;27.910;2023-01-24T01:51:43;102084.63;;;2.72;100.00
11523;BME280;40093;43.224;27.910;2023-01-24T01:54:15;102076.88;;;2.56;100.00
11523;BME280;40093;43.224;27.910;2023-01-24T01:56:46;102079.66;;;2.51;100.00
11523;BME280;40093;43.224;27.910;2023-01-24T01:59:16;102077.16;;;2.54;100.00
11523;BME280;40093;43.224;27.910;2023-01-24T02:01:46;102084.38;;;2.69;100.00
11523;BME280;40093;43.224;27.910;2023-01-24T02:04:17;102062.88;;;2.72;100.00
11523;BME280;40093;43.224;27.910;2023-01-24T02:06:56;102053.25;;;2.56;100.00
11523;BME280;40093;43.224;27.910;2023-01-24T02:09:29;102076.38;;;2.54;100.00
11523;BME280;40093;43.224;27.910;2023-01-24T02:12:01;102080.00;;;2.73;100.00
11523;BME280;40093;43.224;27.910;2023-01-24T02:14:31;102063.13;;;2.76;100.00
11523;BME280;40093;43.224;27.910;2023-01-24T02:17:17;102067.41;;;2.82;100.00
11523;BME280;40093;43.224;27.910;2023-01-24T02:19:53;102075.13;;;2.70;100.00
11523;BME280;40093;43.224;27.910;2023-01-24T02:22:30;102075.88;;;2.47;100.00
11523;BME280;40093;43.224;27.910;2023-01-24T02:25:08;102066.00;;;2.61;100.00
11523;BME280;40093;43.224;27.910;2023-01-24T02:27:41;102072.47;;;2.65;100.00
11523;BME280;40093;43.224;27.910;2023-01-24T02:30:09;102072.47;;;2.65;100.00
11523;BME280;40093;43.224;27.910;2023-01-24T02:32:37;102075.13;;;2.70;100.00
11523;BME280;40093;43.224;27.910;2023-01-24T02:35:04;102089.25;;;2.72;100.00
11523;BME280;40093;43.224;27.910;2023-01-24T02:37:35;102076.03;;;2.60;100.00
11523;BME280;40093;43.224;27.910;2023-01-24T02:40:06;102084.50;;;2.54;100.00
11523;BME280;40093;43.224;27.910;2023-01-24T02:42:36;102078.56;;;2.52;100.00
11523;BME280;40093;43.224;27.910;2023-01-24T02:45:10;102084.13;;;2.65;100.00
11523;BME280;40093;43.224;27.910;2023-01-24T02:47:43;102078.94;;;2.69;100.00
11523;BME280;40093;43.224;27.910;2023-01-24T02:50:11;102075.75;;;2.62;100.00
11523;BME280;40093;43.224;27.910;2023-01-24T02:52:38;102073.22;;;2.42;100.00
11523;BME280;40093;43.224;27.910;2023-01-24T02:55:28;102079.66;;;2.51;100.00
11523;BME280;40093;43.224;27.910;2023-01-24T02:57:55;102069.31;;;2.53;100.00
11523;BME280;40093;43.224;27.910;2023-01-24T03:00:35;102084.38;;;2.69;100.00
11523;BME280;40093;43.224;27.910;2023-01-24T03:03:03;102088.84;;;2.55;100.00
11523;BME280;40093;43.224;27.910;2023-01-24T03:05:31;102077.16;;;2.54;100.00
11523;BME280;40093;43.224;27.910;2023-01-24T03:08:06;102089.81;;;2.69;100.00
11523;BME280;40093;43.224;27.910;2023-01-24T03:10:33;102094.22;;;2.60;100.00
11523;BME280;40093;43.224;27.910;2023-01-24T03:13:00;102092.91;;;2.57;100.00
11523;BME280;40093;43.224;27.910;2023-01-24T03:15:46;102061.31;;;2.33;100.00
11523;BME280;40093;43.224;27.910;2023-01-24T03:18:30;102090.31;;;2.42;100.00
11523;BME280;40093;43.224;27.910;2023-01-24T03:21:16;102082.97;;;2.43;100.00
11523;BME280;40093;43.224;27.910;2023-01-24T03:24:00;102095.78;;;2.38;100.00
11523;BME280;40093;43.224;27.910;2023-01-24T03:26:45;102091.19;;;2.33;100.00
11523;BME280;40093;43.224;27.910;2023-01-24T03:29:29;102099.38;;;2.28;100.00
11523;BME280;40093;43.224;27.910;2023-01-24T03:32:15;102103.75;;;2.24;100.00
11523;BME280;40093;43.224;27.910;2023-01-24T03:34:59;102102.63;;;2.30;100.00
11523;BME280;40093;43.224;27.910;2023-01-24T03:37:26;102109.66;;;2.36;100.00
11523;BME280;40093;43.224;27.910;2023-01-24T03:40:12;102093.88;;;2.38;100.00
11523;BME280;40093;43.224;27.910;2023-01-24T03:42:41;102093.94;;;2.28;100.00
11523;BME280;40093;43.224;27.910;2023-01-24T03:45:14;102099.63;;;2.32;100.00
11523;BME280;40093;43.224;27.910;2023-01-24T03:47:47;102084.16;;;2.32;100.00
11523;BME280;40093;43.224;27.910;2023-01-24T03:50:21;102077.56;;;2.38;100.00
11523;BME280;40093;43.224;27.910;2023-01-24T03:53:06;102061.25;;;2.38;100.00
11523;BME280;40093;43.224;27.910;2023-01-24T03:55:33;102042.41;;;2.18;100.00
11523;BME280;40093;43.224;27.910;2023-01-24T03:58:00;102085.84;;;2.23;100.00
11523;BME280;40093;43.224;27.910;2023-01-24T04:00:27;102085.78;;;2.33;100.00
11523;BME280;40093;43.224;27.910;2023-01-24T04:02:55;102084.75;;;2.24;100.00
11523;BME280;40093;43.224;27.910;2023-01-24T04:05:22;102085.19;;;2.36;100.00
11523;BME280;40093;43.224;27.910;2023-01-24T04:07:49;102087.00;;;2.50;100.00
11523;BME280;40093;43.224;27.910;2023-01-24T04:10:16;102087.50;;;2.52;100.00
11523;BME280;40093;43.224;27.910;2023-01-24T04:12:43;102093.25;;;2.51;100.00
11523;BME280;40093;43.224;27.910;2023-01-24T04:15:15;102085.88;;;2.56;100.00
11523;BME280;40093;43.224;27.910;2023-01-24T04:17:42;102085.88;;;2.56;100.00
11523;BME280;40093;43.224;27.910;2023-01-24T04:20:11;102092.09;;;2.24;100.00
11523;BME280;40093;43.224;27.910;2023-01-24T04:22:39;102087.50;;;2.19;100.00
11523;BME280;40093;43.224;27.910;2023-01-24T04:25:06;102093.72;;;2.25;100.00
11523;BME280;40093;43.224;27.910;2023-01-24T04:27:34;102097.69;;;2.37;100.00
11523;BME280;40093;43.224;27.910;2023-01-24T04:30:01;102098.19;;;2.44;100.00
11523;BME280;40093;43.224;27.910;2023-01-24T04:32:29;102092.16;;;2.47;100.00
11523;BME280;40093;43.224;27.910;2023-01-24T04:34:56;102107.38;;;2.48;100.00
11523;BME280;40093;43.224;27.910;2023-01-24T04:37:25;102099.28;;;2.43;100.00
11523;BME280;40093;43.224;27.910;2023-01-24T04:39:52;102116.69;;;2.37;100.00
11523;BME280;40093;43.224;27.910;2023-01-24T04:42:19;102110.47;;;2.37;100.00
11523;BME280;40093;43.224;27.910;2023-01-24T04:44:46;102121.16;;;2.18;100.00
11523;BME280;40093;43.224;27.910;2023-01-24T04:47:13;102110.88;;;2.15;100.00
11523;BME280;40093;43.224;27.910;2023-01-24T04:49:40;102118.50;;;2.13;100.00
11523;BME280;40093;43.224;27.910;2023-01-24T04:52:08;102115.56;;;2.05;100.00
11523;BME280;40093;43.224;27.910;2023-01-24T04:54:38;102120.63;;;2.16;100.00
11523;BME280;40093;43.224;27.910;2023-01-24T04:57:06;102119.47;;;2.27;100.00
11523;BME280;40093;43.224;27.910;2023-01-24T04:59:33;102123.28;;;2.31;100.00
11523;BME280;40093;43.224;27.910;2023-01-24T05:02:00;102122.91;;;2.42;100.00
11523;BME280;40093;43.224;27.910;2023-01-24T05:04:27;102122.84;;;2.52;100.00
11523;BME280;40093;43.224;27.910;2023-01-24T05:06:53;102130.97;;;2.57;100.00
11523;BME280;40093;43.224;27.910;2023-01-24T05:09:20;102121.00;;;2.43;100.00
11523;BME280;40093;43.224;27.910;2023-01-24T05:11:49;102117.22;;;2.39;100.00
11523;BME280;40093;43.224;27.910;2023-01-24T05:14:15;102133.53;;;2.39;100.00
11523;BME280;40093;43.224;27.910;2023-01-24T05:16:42;102125.94;;;2.41;100.00
11523;BME280;40093;43.224;27.910;2023-01-24T05:19:09;102136.22;;;2.44;100.00
11523;BME280;40093;43.224;27.910;2023-01-24T05:21:36;102139.06;;;2.29;100.00
11523;BME280;40093;43.224;27.910;2023-01-24T05:24:04;102131.97;;;2.28;100.00
11523;BME280;40093;43.224;27.910;2023-01-24T05:26:31;102122.44;;;2.36;100.00
11523;BME280;40093;43.224;27.910;2023-01-24T05:28:59;102118.63;;;2.37;100.00
11523;BME280;40093;43.224;27.910;2023-01-24T05:31:26;102121.53;;;2.45;100.00
11523;BME280;40093;43.224;27.910;2023-01-24T05:33:53;102131.16;;;2.28;100.00
11523;BME280;40093;43.224;27.910;2023-01-24T05:36:22;102130.91;;;2.29;100.00
11523;BME280;40093;43.224;27.910;2023-01-24T05:38:49;102135.94;;;2.45;100.00
11523;BME280;40093;43.224;27.910;2023-01-24T05:41:18;102137.84;;;2.45;100.00
11523;BME280;40093;43.224;27.910;2023-01-24T05:43:46;102140.22;;;2.51;100.00
11523;BME280;40093;43.224;27.910;2023-01-24T05:46:15;102150.06;;;2.42;100.00
11523;BME280;40093;43.224;27.910;2023-01-24T05:48:43;102138.44;;;2.37;100.00
11523;BME280;40093;43.224;27.910;2023-01-24T05:51:11;102154.16;;;2.45;100.00
11523;BME280;40093;43.224;27.910;2023-01-24T05:53:40;102145.47;;;2.43;100.00
11523;BME280;40093;43.224;27.910;2023-01-24T05:56:09;102148.97;;;2.48;100.00
11523;BME280;40093;43.224;27.910;2023-01-24T05:58:37;102151.16;;;2.46;100.00
11523;BME280;40093;43.224;27.910;2023-01-24T06:01:07;102157.97;;;2.39;100.00
11523;BME280;40093;43.224;27.910;2023-01-24T06:03:38;102161.19;;;2.46;100.00
11523;BME280;40093;43.224;27.910;2023-01-24T06:06:07;102157.31;;;2.57;100.00
11523;BME280;40093;43.224;27.910;2023-01-24T06:08:34;102151.63;;;2.53;100.00
11523;BME280;40093;43.224;27.910;2023-01-24T06:11:03;102165.22;;;2.53;100.00
11523;BME280;40093;43.224;27.910;2023-01-24T06:13:31;102137.78;;;2.50;100.00
11523;BME280;40093;43.224;27.910;2023-01-24T06:16:02;102166.63;;;2.51;100.00
11523;BME280;40093;43.224;27.910;2023-01-24T06:18:29;102154.06;;;2.55;100.00
11523;BME280;40093;43.224;27.910;2023-01-24T06:21:03;102157.63;;;2.50;100.00
11523;BME280;40093;43.224;27.910;2023-01-24T06:23:30;102165.00;;;2.45;100.00
11523;BME280;40093;43.224;27.910;2023-01-24T06:25:58;102167.09;;;2.58;100.00
11523;BME280;40093;43.224;27.910;2023-01-24T06:28:25;102174.13;;;2.64;100.00
11523;BME280;40093;43.224;27.910;2023-01-24T06:31:01;102170.81;;;2.72;100.00
11523;BME280;40093;43.224;27.910;2023-01-24T06:33:35;102168.44;;;2.60;100.00
11523;BME280;40093;43.224;27.910;2023-01-24T06:36:19;102167.59;;;2.65;100.00
11523;BME280;40093;43.224;27.910;2023-01-24T06:38:48;102182.75;;;2.71;100.00
11523;BME280;40093;43.224;27.910;2023-01-24T06:41:17;102178.97;;;2.72;100.00
11523;BME280;40093;43.224;27.910;2023-01-24T06:43:44;102185.59;;;2.56;100.00
11523;BME280;40093;43.224;27.910;2023-01-24T06:46:12;102190.91;;;2.71;100.00
11523;BME280;40093;43.224;27.910;2023-01-24T06:48:42;102168.28;;;2.80;100.00
11523;BME280;40093;43.224;27.910;2023-01-24T06:51:10;102181.59;;;2.82;100.00
11523;BME280;40093;43.224;27.910;2023-01-24T06:53:39;102182.03;;;2.60;100.00
11523;BME280;40093;43.224;27.910;2023-01-24T06:56:07;102167.09;;;2.58;100.00
11523;BME280;40093;43.224;27.910;2023-01-24T06:58:34;102181.19;;;2.65;100.00
11523;BME280;40093;43.224;27.910;2023-01-24T07:01:01;102166.00;;;2.59;100.00
11523;BME280;40093;43.224;27.910;2023-01-24T07:03:28;102181.56;;;2.48;100.00
11523;BME280;40093;43.224;27.910;2023-01-24T07:05:56;102188.31;;;2.56;100.00
11523;BME280;40093;43.224;27.910;2023-01-24T07:08:23;102180.19;;;2.51;100.00
11523;BME280;40093;43.224;27.910;2023-01-24T07:10:51;102186.25;;;2.38;100.00
11523;BME280;40093;43.224;27.910;2023-01-24T07:13:18;102186.81;;;2.35;100.00
11523;BME280;40093;43.224;27.910;2023-01-24T07:15:45;102177.75;;;2.49;100.00
11523;BME280;40093;43.224;27.910;2023-01-24T07:18:13;102175.53;;;2.56;100.00
11523;BME280;40093;43.224;27.910;2023-01-24T07:20:43;102162.19;;;2.60;100.00
11523;BME280;40093;43.224;27.910;2023-01-24T07:23:20;102176.34;;;2.57;100.00
11523;BME280;40093;43.224;27.910;2023-01-24T07:25:49;102170.44;;;2.45;100.00
11523;BME280;40093;43.224;27.910;2023-01-24T07:28:18;102150.47;;;2.64;100.00
11523;BME280;40093;43.224;27.910;2023-01-24T07:30:45;102186.50;;;2.41;100.00
11523;BME280;40093;43.224;27.910;2023-01-24T07:33:12;102171.81;;;2.42;100.00
11523;BME280;40093;43.224;27.910;2023-01-24T07:35:39;102171.44;;;2.59;100.00
11523;BME280;40093;43.224;27.910;2023-01-24T07:38:06;102182.22;;;2.74;100.00
11523;BME280;40093;43.224;27.910;2023-01-24T07:40:33;102178.41;;;2.70;100.00
11523;BME280;40093;43.224;27.910;2023-01-24T07:43:02;102170.22;;;2.75;100.00
11523;BME280;40093;43.224;27.910;2023-01-24T07:45:31;102213.22;;;2.68;100.00
11523;BME280;40093;43.224;27.910;2023-01-24T07:48:00;102189.72;;;2.48;100.00
11523;BME280;40093;43.224;27.910;2023-01-24T07:50:28;102193.78;;;2.51;100.00
11523;BME280;40093;43.224;27.910;2023-01-24T07:52:56;102198.13;;;2.52;100.00
11523;BME280;40093;43.224;27.910;2023-01-24T07:55:24;102188.94;;;2.43;100.00
11523;BME280;40093;43.224;27.910;2023-01-24T07:57:51;102206.81;;;2.49;100.00
11523;BME280;40093;43.224;27.910;2023-01-24T08:00:18;102176.59;;;2.60;100.00
11523;BME280;40093;43.224;27.910;2023-01-24T08:02:48;102188.88;;;2.53;100.00
11523;BME280;40093;43.224;27.910;2023-01-24T08:05:15;102149.09;;;2.67;100.00
11523;BME280;40093;43.224;27.910;2023-01-24T08:07:42;102175.56;;;2.51;100.00
11523;BME280;40093;43.224;27.910;2023-01-24T08:10:10;102177.94;;;2.63;100.00
11523;BME280;40093;43.224;27.910;2023-01-24T08:12:36;102192.63;;;2.62;100.00
11523;BME280;40093;43.224;27.910;2023-01-24T08:15:04;102209.66;;;2.72;100.00
11523;BME280;40093;43.224;27.910;2023-01-24T08:17:32;102198.47;;;2.79;100.00
11523;BME280;40093;43.224;27.910;2023-01-24T08:20:02;102198.53;;;2.74;100.00
11523;BME280;40093;43.224;27.910;2023-01-24T08:22:30;102201.09;;;2.94;100.00
11523;BME280;40093;43.224;27.910;2023-01-24T08:24:58;102218.59;;;2.78;100.00
11523;BME280;40093;43.224;27.910;2023-01-24T08:27:24;102208.63;;;3.02;100.00
11523;BME280;40093;43.224;27.910;2023-01-24T08:29:51;102196.28;;;2.81;100.00
11523;BME280;40093;43.224;27.910;2023-01-24T08:32:18;102209.78;;;2.91;100.00
11523;BME280;40093;43.224;27.910;2023-01-24T08:34:47;102203.19;;;3.02;100.00
11523;BME280;40093;43.224;27.910;2023-01-24T08:37:15;102201.72;;;3.14;100.00
11523;BME280;40093;43.224;27.910;2023-01-24T08:39:43;102203.97;;;3.36;100.00
11523;BME280;40093;43.224;27.910;2023-01-24T08:42:10;102205.59;;;3.37;100.00
11523;BME280;40093;43.224;27.910;2023-01-24T08:44:37;102200.16;;;3.37;100.00
11523;BME280;40093;43.224;27.910;2023-01-24T08:47:04;102180.09;;;3.28;100.00
11523;BME280;40093;43.224;27.910;2023-01-24T08:49:31;102220.88;;;3.33;100.00
11523;BME280;40093;43.224;27.910;2023-01-24T08:51:58;102210.03;;;3.28;100.00
11523;BME280;40093;43.224;27.910;2023-01-24T08:54:27;102216.50;;;3.37;100.00
11523;BME280;40093;43.224;27.910;2023-01-24T08:56:54;102204.88;;;3.26;100.00
11523;BME280;40093;43.224;27.910;2023-01-24T08:59:22;102220.72;;;3.48;100.00
11523;BME280;40093;43.224;27.910;2023-01-24T09:01:48;102207.38;;;3.51;100.00
11523;BME280;40093;43.224;27.910;2023-01-24T09:04:15;102193.34;;;3.63;100.00
11523;BME280;40093;43.224;27.910;2023-01-24T09:06:42;102205.91;;;3.59;100.00
11523;BME280;40093;43.224;27.910;2023-01-24T09:09:09;102198.84;;;3.81;100.00
11523;BME280;40093;43.224;27.910;2023-01-24T09:11:37;102199.97;;;3.57;100.00
11523;BME280;40093;43.224;27.910;2023-01-24T09:14:04;102175.28;;;3.72;100.00
11523;BME280;40093;43.224;27.910;2023-01-24T09:16:31;102175.78;;;3.74;100.00
11523;BME280;40093;43.224;27.910;2023-01-24T09:18:58;102160.50;;;3.78;100.00
11523;BME280;40093;43.224;27.910;2023-01-24T09:21:26;102180.13;;;3.75;100.00
11523;BME280;40093;43.224;27.910;2023-01-24T09:23:53;102184.94;;;3.83;100.00
11523;BME280;40093;43.224;27.910;2023-01-24T09:26:20;102186.22;;;3.67;100.00
11523;BME280;40093;43.224;27.910;2023-01-24T09:28:50;102175.97;;;3.59;100.00
11523;BME280;40093;43.224;27.910;2023-01-24T09:31:17;102178.59;;;3.69;100.00
11523;BME280;40093;43.224;27.910;2023-01-24T09:33:43;102168.09;;;3.81;100.00
11523;BME280;40093;43.224;27.910;2023-01-24T09:36:10;102179.84;;;4.00;100.00
11523;BME280;40093;43.224;27.910;2023-01-24T09:38:37;102176.03;;;4.19;100.00
11523;BME280;40093;43.224;27.910;2023-01-24T09:41:17;102179.44;;;4.30;100.00
11523;BME280;40093;43.224;27.910;2023-01-24T09:43:51;102158.84;;;4.00;100.00
11523;BME280;40093;43.224;27.910;2023-01-24T09:46:23;102168.88;;;4.05;100.00
11523;BME280;40093;43.224;27.910;2023-01-24T09:48:58;102161.19;;;4.30;100.00
11523;BME280;40093;43.224;27.910;2023-01-24T09:51:29;102161.50;;;4.47;100.00
11523;BME280;40093;43.224;27.910;2023-01-24T09:54:02;102160.13;;;4.63;100.00
11523;BME280;40093;43.224;27.910;2023-01-24T09:56:34;102147.56;;;4.80;100.00
11523;BME280;40093;43.224;27.910;2023-01-24T09:59:19;102153.53;;;4.82;100.00
11523;BME280;40093;43.224;27.910;2023-01-24T10:01:47;102135.72;;;5.03;100.00
11523;BME280;40093;43.224;27.910;2023-01-24T10:04:17;102143.94;;;5.17;100.00
11523;BME280;40093;43.224;27.910;2023-01-24T10:07:03;102137.06;;;5.06;100.00
11523;BME280;40093;43.224;27.910;2023-01-24T10:09:42;102142.69;;;4.96;100.00
11523;BME280;40093;43.224;27.910;2023-01-24T10:12:19;102137.44;;;4.99;100.00
11523;BME280;40093;43.224;27.910;2023-01-24T10:15:06;102123.13;;;4.76;100.00
11523;BME280;40093;43.224;27.910;2023-01-24T10:20:37;102126.53;;;4.99;100.00
11523;BME280;40093;43.224;27.910;2023-01-24T10:23:16;102126.81;;;4.84;100.00
11523;BME280;40093;43.224;27.910;2023-01-24T10:25:51;102119.16;;;4.50;100.00
11523;BME280;40093;43.224;27.910;2023-01-24T10:28:24;102125.88;;;4.57;100.00
11523;BME280;40093;43.224;27.910;2023-01-24T10:30:58;102116.97;;;4.83;100.00
11523;BME280;40093;43.224;27.910;2023-01-24T10:33:31;102110.56;;;4.93;100.00
11523;BME280;40093;43.224;27.910;2023-01-24T10:36:05;102112.69;;;4.46;100.00
11523;BME280;40093;43.224;27.910;2023-01-24T10:38:34;102104.38;;;4.56;100.00
11523;BME280;40093;43.224;27.910;2023-01-24T10:41:15;102114.38;;;4.92;100.00
11523;BME280;40093;43.224;27.910;2023-01-24T10:43:44;102109.72;;;4.92;100.00
11523;BME280;40093;43.224;27.910;2023-01-24T10:46:25;102110.34;;;4.89;100.00
11523;BME280;40093;43.224;27.910;2023-01-24T10:48:56;102108.94;;;5.05;100.00
11523;BME280;40093;43.224;27.910;2023-01-24T10:51:25;102105.00;;;4.98;100.00
11523;BME280;40093;43.224;27.910;2023-01-24T10:53:55;102105.59;;;4.95;100.00
11523;BME280;40093;43.224;27.910;2023-01-24T10:56:26;102093.69;;;5.04;100.00
11523;BME280;40093;43.224;27.910;2023-01-24T10:58:58;102109.38;;;5.12;100.00
11523;BME280;40093;43.224;27.910;2023-01-24T11:01:35;102103.59;;;5.00;100.00
11523;BME280;40093;43.224;27.910;2023-01-24T11:04:14;102085.00;;;5.02;100.00
11523;BME280;40093;43.224;27.910;2023-01-24T11:06:44;102096.88;;;4.79;100.00
11523;BME280;40093;43.224;27.910;2023-01-24T11:09:13;102078.94;;;4.60;100.00
11523;BME280;40093;43.224;27.910;2023-01-24T11:11:43;102090.81;;;4.51;100.00
11523;BME280;40093;43.224;27.910;2023-01-24T11:14:13;102093.81;;;4.68;100.00
11523;BME280;40093;43.224;27.910;2023-01-24T11:16:44;102088.06;;;4.82;100.00
11523;BME280;40093;43.224;27.910;2023-01-24T11:19:26;102089.34;;;4.90;100.00
11523;BME280;40093;43.224;27.910;2023-01-24T11:21:55;102088.13;;;4.64;100.00
11523;BME280;40093;43.224;27.910;2023-01-24T11:24:24;102091.13;;;4.81;100.00
11523;BME280;40093;43.224;27.910;2023-01-24T11:26:54;102086.56;;;4.77;100.00
11523;BME280;40093;43.224;27.910;2023-01-24T11:29:22;102091.06;;;4.68;100.00
11523;BME280;40093;43.224;27.910;2023-01-24T11:31:54;102087.13;;;4.73;100.00
11523;BME280;40093;43.224;27.910;2023-01-24T11:34:44;102090.00;;;4.82;100.00
11523;BME280;40093;43.224;27.910;2023-01-24T11:37:33;102076.94;;;4.66;100.00
11523;BME280;40093;43.224;27.910;2023-01-24T11:40:14;102068.06;;;4.23;100.00
11523;BME280;40093;43.224;27.910;2023-01-24T11:42:50;102080.50;;;4.48;100.00
11523;BME280;40093;43.224;27.910;2023-01-24T11:45:26;102076.16;;;4.47;100.00
11523;BME280;40093;43.224;27.910;2023-01-24T11:48:07;102074.78;;;4.63;100.00
11523;BME280;40093;43.224;27.910;2023-01-24T11:50:44;102084.81;;;4.67;100.00
11523;BME280;40093;43.224;27.910;2023-01-24T11:53:42;102074.88;;;4.58;100.00
11523;BME280;40093;43.224;27.910;2023-01-24T11:56:17;102074.09;;;4.71;100.00
11523;BME280;40093;43.224;27.910;2023-01-24T11:59:10;102089.53;;;4.93;100.00
11523;BME280;40093;43.224;27.910;2023-01-24T12:01:50;102081.34;;;4.93;100.00
11523;BME280;40093;43.224;27.910;2023-01-24T12:04:50;102070.16;;;5.08;100.00
11523;BME280;40093;43.224;27.910;2023-01-24T12:07:25;102077.44;;;5.13;100.00
11523;BME280;40093;43.224;27.910;2023-01-24T12:09:59;102061.66;;;4.96;100.00
11523;BME280;40093;43.224;27.910;2023-01-24T12:12:38;102065.72;;;5.12;100.00
11523;BME280;40093;43.224;27.910;2023-01-24T12:18:31;102073.38;;;5.10;100.00
11523;BME280;40093;43.224;27.910;2023-01-24T12:21:05;102067.44;;;5.08;100.00
11523;BME280;40093;43.224;27.910;2023-01-24T12:23:42;102075.56;;;4.81;100.00
11523;BME280;40093;43.224;27.910;2023-01-24T12:26:16;102080.75;;;4.33;100.00
11523;BME280;40093;43.224;27.910;2023-01-24T12:28:50;102078.22;;;4.36;100.00
11523;BME280;40093;43.224;27.910;2023-01-24T12:31:26;102077.28;;;4.46;100.00
11523;BME280;40093;43.224;27.910;2023-01-24T12:33:59;102064.47;;;4.60;100.00
11523;BME280;40093;43.224;27.910;2023-01-24T12:36:41;102076.22;;;4.60;100.00
11523;BME280;40093;43.224;27.910;2023-01-24T12:39:19;102073.44;;;4.47;100.00
11523;BME280;40093;43.224;27.910;2023-01-24T12:41:51;102081.94;;;4.59;100.00
11523;BME280;40093;43.224;27.910;2023-01-24T12:44:26;102075.81;;;4.67;100.00
11523;BME280;40093;43.224;27.910;2023-01-24T12:47:06;102072.50;;;4.70;100.00
11523;BME280;40093;43.224;27.910;2023-01-24T12:49:45;102076.78;;;4.76;100.00
11523;BME280;40093;43.224;27.910;2023-01-24T12:52:22;102089.28;;;4.77;100.00
11523;BME280;40093;43.224;27.910;2023-01-24T12:54:54;102076.78;;;4.57;100.00
11523;BME280;40093;43.224;27.910;2023-01-24T12:57:27;102075.03;;;4.48;100.00
11523;BME280;40093;43.224;27.910;2023-01-24T12:59:56;102078.94;;;4.42;100.00
11523;BME280;40093;43.224;27.910;2023-01-24T13:02:44;102073.88;;;4.54;100.00
11523;BME280;40093;43.224;27.910;2023-01-24T13:05:31;102066.44;;;4.72;100.00